createdAt,value
2022-10-07T00:02:31.294Z,16.43
2022-10-07T00:07:33.957Z,15.94
2022-10-07T00:12:36.649Z,16.05
2022-10-07T00:17:39.110Z,16.25
2022-10-07T00:22:41.430Z,16.26
2022-10-07T00:27:43.912Z,16.03
2022-10-07T00:32:46.457Z,16.46
2022-10-07T00:37:48.821Z,16.38
2022-10-07T00:42:53.744Z,16.63
2022-10-07T00:47:56.995Z,16.30
2022-10-07T00:53:02.356Z,16.13
2022-10-07T00:58:09.417Z,16.08
2022-10-07T01:03:12.816Z,16.08
2022-10-07T01:08:15.940Z,16.52
2022-10-07T01:13:33.697Z,16.69
2022-10-07T01:18:41.719Z,16.68
2022-10-07T01:23:52.811Z,16.49
2022-10-07T01:29:04.313Z,16.19
2022-10-07T01:34:09.719Z,15.99
2022-10-07T01:39:15.746Z,16.17
2022-10-07T01:44:18.732Z,15.82
2022-10-07T01:49:21.989Z,15.51
2022-10-07T01:55:01.829Z,15.42
2022-10-07T02:00:10.961Z,15.37
2022-10-07T02:05:51.399Z,15.60
2022-10-07T02:11:12.208Z,15.43
2022-10-07T02:16:36.784Z,15.74
2022-10-07T02:21:42.002Z,15.87
2022-10-07T02:26:45.396Z,15.89
2022-10-07T02:31:50.955Z,16.03
2022-10-07T02:37:02.994Z,15.90
2022-10-07T02:42:25.398Z,15.66
2022-10-07T02:47:33.255Z,15.30
2022-10-07T02:52:37.463Z,15.34
2022-10-07T02:57:47.231Z,15.64
2022-10-07T03:03:05.263Z,15.80
2022-10-07T03:08:30.532Z,15.91
2022-10-07T03:13:35.433Z,16.11
2022-10-07T03:18:39.084Z,16.06
2022-10-07T03:24:05.200Z,16.09
2022-10-07T03:29:13.968Z,16.11
2022-10-07T03:34:17.228Z,15.87
2022-10-07T03:39:23.327Z,15.69
2022-10-07T03:44:26.402Z,15.65
2022-10-07T03:49:30.728Z,15.88
2022-10-07T03:54:33.779Z,15.99
2022-10-07T03:59:36.559Z,15.76
2022-10-07T04:04:40.527Z,16.39
2022-10-07T04:09:42.941Z,16.14
2022-10-07T04:14:45.508Z,15.92
2022-10-07T04:19:48.069Z,15.87
2022-10-07T04:25:11.119Z,15.81
2022-10-07T04:30:14.249Z,16.02
2022-10-07T04:35:18.690Z,15.96
2022-10-07T04:40:22.357Z,15.78
2022-10-07T04:45:25.704Z,15.64
2022-10-07T04:50:29.257Z,15.97
2022-10-07T04:55:42.221Z,16.07
2022-10-07T05:00:50.385Z,15.92
2022-10-07T05:05:56.966Z,15.82
2022-10-07T05:11:02.523Z,15.40
2022-10-07T05:16:12.241Z,15.21
2022-10-07T05:21:17.010Z,15.25
2022-10-07T05:26:22.011Z,15.31
2022-10-07T05:31:29.921Z,15.46
2022-10-07T05:36:36.412Z,15.84
2022-10-07T05:41:45.575Z,15.82
2022-10-07T05:46:51.574Z,15.73
2022-10-07T05:51:54.831Z,15.97
2022-10-07T05:56:57.404Z,16.19
2022-10-07T06:02:01.103Z,16.19
2022-10-07T06:07:05.596Z,16.27
2022-10-07T06:12:29.323Z,16.37
2022-10-07T06:17:33.282Z,16.46
2022-10-07T06:22:39.328Z,16.90
2022-10-07T06:27:41.864Z,17.15
2022-10-07T06:32:44.471Z,16.89
2022-10-07T06:37:47.729Z,16.87
2022-10-07T06:42:50.652Z,16.98
2022-10-07T06:48:15.945Z,16.87
2022-10-07T06:53:19.689Z,17.22
2022-10-07T06:58:22.558Z,17.73
2022-10-07T07:03:27.260Z,17.92
2022-10-07T07:08:32.340Z,18.31
2022-10-07T07:13:38.830Z,18.74
2022-10-07T07:18:43.523Z,19.03
2022-10-07T07:23:46.203Z,19.22
2022-10-07T07:28:55.333Z,19.20
2022-10-07T07:34:01.717Z,18.74
2022-10-07T07:39:09.899Z,18.13
2022-10-07T07:44:15.121Z,17.76
2022-10-07T07:49:18.257Z,17.78
2022-10-07T07:54:21.159Z,18.04
2022-10-07T07:59:27.400Z,17.71
2022-10-07T08:04:32.792Z,17.33
2022-10-07T08:09:41.996Z,17.55
2022-10-07T08:14:44.543Z,17.45
2022-10-07T08:19:48.457Z,17.53
2022-10-07T08:24:51.054Z,17.63
2022-10-07T08:29:56.173Z,17.86
2022-10-07T08:34:59.196Z,19.31
2022-10-07T08:40:01.824Z,20.91
2022-10-07T08:45:05.568Z,22.27
2022-10-07T08:50:19.899Z,21.54
2022-10-07T08:55:22.559Z,21.23
2022-10-07T09:00:25.097Z,19.92
2022-10-07T09:05:34.184Z,19.26
2022-10-07T09:10:50.716Z,18.69
2022-10-07T09:16:14.086Z,18.37
2022-10-07T09:21:22.806Z,18.33
2022-10-07T09:26:27.486Z,18.53
2022-10-07T09:31:32.816Z,19.02
2022-10-07T09:37:00.683Z,18.96
2022-10-07T09:42:07.213Z,19.20
2022-10-07T09:47:29.172Z,19.28
2022-10-07T09:52:32.778Z,19.07
2022-10-07T09:57:36.971Z,19.13
2022-10-07T10:02:48.551Z,19.59
2022-10-07T10:08:03.714Z,19.61
2022-10-07T10:13:23.553Z,19.64
2022-10-07T10:18:42.131Z,19.73
2022-10-07T10:23:53.147Z,19.55
2022-10-07T10:29:19.142Z,19.71
2022-10-07T10:34:50.007Z,19.61
2022-10-07T10:40:23.160Z,19.77
2022-10-07T10:45:35.145Z,20.04
2022-10-07T10:50:45.551Z,20.42
2022-10-07T10:56:17.474Z,21.26
2022-10-07T11:01:40.842Z,23.05
2022-10-07T11:06:48.816Z,26.12
2022-10-07T11:11:51.570Z,28.15
2022-10-07T11:17:01.203Z,28.39
2022-10-07T11:22:04.266Z,27.64
2022-10-07T11:27:23.831Z,24.60
2022-10-07T11:32:36.182Z,22.85
2022-10-07T11:37:43.079Z,21.50
2022-10-07T11:42:50.380Z,20.93
2022-10-07T11:47:58.939Z,21.08
2022-10-07T11:53:06.639Z,21.43
2022-10-07T11:58:25.470Z,21.22
2022-10-07T12:03:34.689Z,20.52
2022-10-07T12:08:40.657Z,20.81
2022-10-07T12:13:46.249Z,20.79
2022-10-07T12:19:10.515Z,20.91
2022-10-07T12:24:16.586Z,20.57
2022-10-07T12:29:35.661Z,20.92
2022-10-07T12:34:41.424Z,20.91
2022-10-07T12:39:44.090Z,20.89
2022-10-07T12:44:52.686Z,20.59
2022-10-07T12:50:07.223Z,20.84
2022-10-07T12:55:16.329Z,21.54
2022-10-07T13:00:18.641Z,20.97
2022-10-07T13:05:58.632Z,20.47
2022-10-07T13:11:47.554Z,20.23
2022-10-07T13:16:56.070Z,20.51
2022-10-07T13:22:18.748Z,21.37
2022-10-07T13:27:25.569Z,24.09
2022-10-07T13:32:34.427Z,25.02
2022-10-07T13:37:45.230Z,24.37
2022-10-07T13:42:59.264Z,24.65
2022-10-07T13:48:01.765Z,24.89
2022-10-07T13:53:04.304Z,26.55
2022-10-07T13:58:07.249Z,27.97
2022-10-07T14:03:17.304Z,26.15
2022-10-07T14:08:22.578Z,24.23
2022-10-07T14:13:28.970Z,23.69
2022-10-07T14:18:31.856Z,22.27
2022-10-07T14:23:37.871Z,21.10
2022-10-07T14:28:42.020Z,20.75
2022-10-07T14:34:29.839Z,20.64
2022-10-07T14:39:32.431Z,20.40
2022-10-07T14:44:35.144Z,20.79
2022-10-07T14:49:37.835Z,20.71
2022-10-07T14:54:41.087Z,20.33
2022-10-07T14:59:43.460Z,20.18
2022-10-07T15:04:46.915Z,20.36
2022-10-07T15:09:49.358Z,20.50
2022-10-07T15:14:52.032Z,20.26
2022-10-07T15:19:54.551Z,20.09
2022-10-07T15:24:57.519Z,19.99
2022-10-07T15:30:02.875Z,19.85
2022-10-07T15:35:05.720Z,19.64
2022-10-07T15:40:08.931Z,19.47
2022-10-07T15:45:11.686Z,19.49
2022-10-07T15:50:16.524Z,19.25
2022-10-07T15:55:19.541Z,19.01
2022-10-07T16:00:22.134Z,18.94
2022-10-07T16:05:24.523Z,18.97
2022-10-07T16:10:27.104Z,18.86
2022-10-07T16:15:29.560Z,18.79
2022-10-07T16:20:31.959Z,18.74
2022-10-07T16:25:36.440Z,18.86
2022-10-07T16:30:43.249Z,18.81
2022-10-07T16:35:45.777Z,18.77
2022-10-07T16:40:54.881Z,18.61
2022-10-07T16:46:03.054Z,18.55
2022-10-07T16:51:12.595Z,18.47
2022-10-07T16:56:19.189Z,18.47
2022-10-07T17:01:21.631Z,18.74
2022-10-07T17:06:25.555Z,18.82
2022-10-07T17:11:31.273Z,18.56
2022-10-07T17:16:42.888Z,18.34
2022-10-07T17:21:47.645Z,18.66
2022-10-07T17:26:53.099Z,18.53
2022-10-07T17:31:56.097Z,18.51
2022-10-07T17:36:59.741Z,18.38
2022-10-07T17:42:02.103Z,18.46
2022-10-07T17:47:05.348Z,18.47
2022-10-07T17:52:08.055Z,18.47
2022-10-07T17:57:10.500Z,18.66
2022-10-07T18:02:13.095Z,18.97
2022-10-07T18:07:16.788Z,19.02
2022-10-07T18:12:38.505Z,18.74
2022-10-07T18:17:40.899Z,18.41
2022-10-07T18:22:44.262Z,18.19
2022-10-07T18:27:46.918Z,18.00
2022-10-07T18:32:52.576Z,17.72
2022-10-07T18:37:54.990Z,17.85
2022-10-07T18:42:57.406Z,17.51
2022-10-07T18:48:00.046Z,17.23
2022-10-07T18:53:02.561Z,17.39
2022-10-07T18:58:04.928Z,17.25
2022-10-07T19:03:08.050Z,17.10
2022-10-07T19:08:10.559Z,17.03
2022-10-07T19:13:46.784Z,16.87
2022-10-07T19:18:54.534Z,16.89
2022-10-07T19:23:58.883Z,16.79
2022-10-07T19:29:02.151Z,17.01
2022-10-07T19:34:08.240Z,16.87
2022-10-07T19:39:11.208Z,16.60
2022-10-07T19:44:17.354Z,16.61
2022-10-07T19:49:19.966Z,16.62
2022-10-07T19:54:22.344Z,16.54
2022-10-07T19:59:25.258Z,16.48
2022-10-07T20:04:27.692Z,16.63
2022-10-07T20:09:30.139Z,16.43
2022-10-07T20:14:33.082Z,16.42
2022-10-07T20:19:35.690Z,16.28
2022-10-07T20:24:38.490Z,16.17
2022-10-07T20:29:57.219Z,16.13
2022-10-07T20:35:00.550Z,16.16
2022-10-07T20:40:22.040Z,16.19
2022-10-07T20:45:24.459Z,16.10
2022-10-07T20:50:26.811Z,16.09
2022-10-07T20:55:31.962Z,16.16
2022-10-07T21:00:38.424Z,16.12
2022-10-07T21:05:40.871Z,16.09
2022-10-07T21:10:43.221Z,16.08
2022-10-07T21:15:45.637Z,16.00
2022-10-07T21:20:56.921Z,15.98
2022-10-07T21:26:05.444Z,15.96
2022-10-07T21:31:11.519Z,15.88
2022-10-07T21:36:17.035Z,15.86
2022-10-07T21:41:22.976Z,15.86
2022-10-07T21:46:27.148Z,15.83
2022-10-07T21:51:29.761Z,15.78
2022-10-07T21:56:33.620Z,15.80
2022-10-07T22:01:36.122Z,15.77
2022-10-07T22:06:57.329Z,15.69
2022-10-07T22:11:59.858Z,15.64
2022-10-07T22:17:02.195Z,15.66
2022-10-07T22:22:04.623Z,15.64
2022-10-07T22:27:07.177Z,15.64
2022-10-07T22:32:09.794Z,15.67
2022-10-07T22:37:12.196Z,15.66
2022-10-07T22:42:14.539Z,15.64
2022-10-07T22:47:17.001Z,15.69
2022-10-07T22:52:19.372Z,15.80
2022-10-07T22:57:21.902Z,15.94
2022-10-07T23:02:24.609Z,16.09
2022-10-07T23:07:28.296Z,16.16
2022-10-07T23:12:30.731Z,16.26
2022-10-07T23:17:33.072Z,16.39
2022-10-07T23:22:35.707Z,16.45
2022-10-07T23:27:39.504Z,16.48
2022-10-07T23:32:46.078Z,16.52
2022-10-07T23:37:48.579Z,16.49
2022-10-07T23:42:50.989Z,16.56
2022-10-07T23:47:53.981Z,16.60
2022-10-07T23:52:56.323Z,16.65
2022-10-07T23:57:58.668Z,16.57
